Terminal Aerodrome Forecast
Issued by NWS Tampa Bay Area, FL

Home | Current Version | Previous Version | Text Only | Print | Product List | Glossary On
Versions: 1 2 3 4 5 6 7 8 9 10 11 12 13
000
FTUS42 KTBW 271740
TAFFMY
TAF
KFMY 271740Z 2718/2818 09008KT P6SM SCT060
     FM272100 05010KT P6SM VCTS BKN040CB
     FM280200 08007KT P6SM SCT040 SCT100
     FM280600 06006KT P6SM FEW030
     FM281500 07007KT P6SM SCT050=

USA.gov is the U.S. government's official web portal to all federal, state and local government web resources and services.